sensor_id;sensor_type;location;lat;lon;timestamp;temperature;humidity
11748;DHT22;5931;48.832;9.072;2023-04-24T00:01:15;10.90;99.90
11748;DHT22;5931;48.832;9.072;2023-04-24T00:03:42;11.00;99.90
11748;DHT22;5931;48.832;9.072;2023-04-24T00:06:08;10.90;99.90
11748;DHT22;5931;48.832;9.072;2023-04-24T00:08:36;11.00;99.90
11748;DHT22;5931;48.832;9.072;2023-04-24T00:11:02;11.00;99.90
11748;DHT22;5931;48.832;9.072;2023-04-24T00:13:28;11.00;99.90
11748;DHT22;5931;48.832;9.072;2023-04-24T00:18:30;11.00;99.90
11748;DHT22;5931;48.832;9.072;2023-04-24T00:20:56;11.10;99.90
11748;DHT22;5931;48.832;9.072;2023-04-24T00:23:22;11.10;99.90
11748;DHT22;5931;48.832;9.072;2023-04-24T00:25:47;11.00;99.90
11748;DHT22;5931;48.832;9.072;2023-04-24T00:28:13;11.00;99.90
11748;DHT22;5931;48.832;9.072;2023-04-24T00:30:40;11.00;99.90
11748;DHT22;5931;48.832;9.072;2023-04-24T00:33:05;11.10;99.90
11748;DHT22;5931;48.832;9.072;2023-04-24T00:35:31;11.00;99.90
11748;DHT22;5931;48.832;9.072;2023-04-24T00:37:57;11.00;99.90
11748;DHT22;5931;48.832;9.072;2023-04-24T00:40:23;11.10;99.90
11748;DHT22;5931;48.832;9.072;2023-04-24T00:42:48;11.10;99.90
11748;DHT22;5931;48.832;9.072;2023-04-24T00:45:14;11.20;99.90
11748;DHT22;5931;48.832;9.072;2023-04-24T00:47:42;11.10;99.90
11748;DHT22;5931;48.832;9.072;2023-04-24T00:50:08;11.10;99.90
11748;DHT22;5931;48.832;9.072;2023-04-24T00:52:34;11.20;99.90
11748;DHT22;5931;48.832;9.072;2023-04-24T00:54:59;11.20;99.90
11748;DHT22;5931;48.832;9.072;2023-04-24T00:57:26;11.30;99.90
11748;DHT22;5931;48.832;9.072;2023-04-24T00:59:52;11.30;99.90
11748;DHT22;5931;48.832;9.072;2023-04-24T01:02:19;11.30;99.90
11748;DHT22;5931;48.832;9.072;2023-04-24T01:04:46;11.20;99.90
11748;DHT22;5931;48.832;9.072;2023-04-24T01:07:12;11.20;99.90
11748;DHT22;5931;48.832;9.072;2023-04-24T01:09:41;11.30;99.90
11748;DHT22;5931;48.832;9.072;2023-04-24T01:12:09;11.20;99.90
11748;DHT22;5931;48.832;9.072;2023-04-24T01:14:37;11.20;99.90
11748;DHT22;5931;48.832;9.072;2023-04-24T01:17:02;11.20;99.90
11748;DHT22;5931;48.832;9.072;2023-04-24T01:19:28;11.20;99.90
11748;DHT22;5931;48.832;9.072;2023-04-24T01:21:54;11.20;99.90
11748;DHT22;5931;48.832;9.072;2023-04-24T01:24:23;11.10;99.90
11748;DHT22;5931;48.832;9.072;2023-04-24T01:26:49;11.00;99.90
11748;DHT22;5931;48.832;9.072;2023-04-24T01:29:15;11.00;99.90
11748;DHT22;5931;48.832;9.072;2023-04-24T01:31:42;11.00;99.90
11748;DHT22;5931;48.832;9.072;2023-04-24T01:34:08;11.00;99.90
11748;DHT22;5931;48.832;9.072;2023-04-24T01:36:35;10.90;99.90
11748;DHT22;5931;48.832;9.072;2023-04-24T01:39:02;10.90;99.90
11748;DHT22;5931;48.832;9.072;2023-04-24T01:41:29;10.80;99.90
11748;DHT22;5931;48.832;9.072;2023-04-24T01:43:57;10.90;99.90
11748;DHT22;5931;48.832;9.072;2023-04-24T01:46:23;10.90;99.90
11748;DHT22;5931;48.832;9.072;2023-04-24T01:48:51;10.90;99.90
11748;DHT22;5931;48.832;9.072;2023-04-24T01:51:18;10.90;99.90
11748;DHT22;5931;48.832;9.072;2023-04-24T01:53:44;10.80;99.90
11748;DHT22;5931;48.832;9.072;2023-04-24T01:56:10;10.80;99.90
11748;DHT22;5931;48.832;9.072;2023-04-24T01:58:36;10.70;99.90
11748;DHT22;5931;48.832;9.072;2023-04-24T02:01:02;10.60;99.90
11748;DHT22;5931;48.832;9.072;2023-04-24T02:03:27;10.70;99.90
11748;DHT22;5931;48.832;9.072;2023-04-24T02:05:55;10.60;99.90
11748;DHT22;5931;48.832;9.072;2023-04-24T02:08:20;10.60;99.90
11748;DHT22;5931;48.832;9.072;2023-04-24T02:10:48;10.50;99.90
11748;DHT22;5931;48.832;9.072;2023-04-24T02:13:14;10.60;99.90
11748;DHT22;5931;48.832;9.072;2023-04-24T02:15:40;10.70;99.90
11748;DHT22;5931;48.832;9.072;2023-04-24T02:18:05;10.70;99.90
11748;DHT22;5931;48.832;9.072;2023-04-24T02:20:32;10.70;99.90
11748;DHT22;5931;48.832;9.072;2023-04-24T02:22:59;10.80;99.90
11748;DHT22;5931;48.832;9.072;2023-04-24T02:25:25;10.90;99.90
11748;DHT22;5931;48.832;9.072;2023-04-24T02:27:54;10.90;99.90
11748;DHT22;5931;48.832;9.072;2023-04-24T02:30:19;10.90;99.90
11748;DHT22;5931;48.832;9.072;2023-04-24T02:32:45;10.90;99.90
11748;DHT22;5931;48.832;9.072;2023-04-24T02:35:11;10.90;99.90
11748;DHT22;5931;48.832;9.072;2023-04-24T02:37:36;10.90;99.90
11748;DHT22;5931;48.832;9.072;2023-04-24T02:40:02;10.90;99.90
11748;DHT22;5931;48.832;9.072;2023-04-24T02:42:28;10.80;99.90
11748;DHT22;5931;48.832;9.072;2023-04-24T02:44:53;10.70;99.90
11748;DHT22;5931;48.832;9.072;2023-04-24T02:47:19;10.60;99.90
11748;DHT22;5931;48.832;9.072;2023-04-24T02:49:45;10.60;99.90
11748;DHT22;5931;48.832;9.072;2023-04-24T02:52:11;10.60;99.90
11748;DHT22;5931;48.832;9.072;2023-04-24T02:54:36;10.60;99.90
11748;DHT22;5931;48.832;9.072;2023-04-24T02:57:02;10.50;99.90
11748;DHT22;5931;48.832;9.072;2023-04-24T02:59:28;10.50;99.90
11748;DHT22;5931;48.832;9.072;2023-04-24T03:01:54;10.40;99.90
11748;DHT22;5931;48.832;9.072;2023-04-24T03:04:20;10.40;99.90
11748;DHT22;5931;48.832;9.072;2023-04-24T03:06:45;10.40;99.90
11748;DHT22;5931;48.832;9.072;2023-04-24T03:09:12;10.40;99.90
11748;DHT22;5931;48.832;9.072;2023-04-24T03:11:38;10.30;99.90
11748;DHT22;5931;48.832;9.072;2023-04-24T03:14:03;10.20;99.90
11748;DHT22;5931;48.832;9.072;2023-04-24T03:16:29;10.10;99.90
11748;DHT22;5931;48.832;9.072;2023-04-24T03:18:55;10.10;99.90
11748;DHT22;5931;48.832;9.072;2023-04-24T03:21:22;10.10;99.90
11748;DHT22;5931;48.832;9.072;2023-04-24T03:23:48;10.00;99.90
11748;DHT22;5931;48.832;9.072;2023-04-24T03:26:14;10.00;99.90
11748;DHT22;5931;48.832;9.072;2023-04-24T03:28:50;10.10;99.90
11748;DHT22;5931;48.832;9.072;2023-04-24T03:31:16;10.00;99.90
11748;DHT22;5931;48.832;9.072;2023-04-24T03:33:42;10.00;99.90
11748;DHT22;5931;48.832;9.072;2023-04-24T03:36:08;10.00;99.90
11748;DHT22;5931;48.832;9.072;2023-04-24T03:38:38;9.90;99.90
11748;DHT22;5931;48.832;9.072;2023-04-24T03:41:18;9.80;99.90
11748;DHT22;5931;48.832;9.072;2023-04-24T03:43:50;9.80;99.90
11748;DHT22;5931;48.832;9.072;2023-04-24T03:46:16;9.70;99.90
11748;DHT22;5931;48.832;9.072;2023-04-24T03:48:47;9.70;99.90
11748;DHT22;5931;48.832;9.072;2023-04-24T03:51:16;9.70;99.90
11748;DHT22;5931;48.832;9.072;2023-04-24T03:53:45;9.70;99.90
11748;DHT22;5931;48.832;9.072;2023-04-24T03:56:13;9.80;99.90
11748;DHT22;5931;48.832;9.072;2023-04-24T03:58:40;9.70;99.90
11748;DHT22;5931;48.832;9.072;2023-04-24T04:01:06;9.60;99.90
11748;DHT22;5931;48.832;9.072;2023-04-24T04:03:46;9.60;99.90
11748;DHT22;5931;48.832;9.072;2023-04-24T04:06:16;9.60;99.90
11748;DHT22;5931;48.832;9.072;2023-04-24T04:08:42;9.60;99.90
11748;DHT22;5931;48.832;9.072;2023-04-24T04:11:07;9.60;99.90
11748;DHT22;5931;48.832;9.072;2023-04-24T04:13:33;9.60;99.90
11748;DHT22;5931;48.832;9.072;2023-04-24T04:15:59;9.80;99.90
11748;DHT22;5931;48.832;9.072;2023-04-24T04:18:25;9.80;99.90
11748;DHT22;5931;48.832;9.072;2023-04-24T04:20:51;9.90;99.90
11748;DHT22;5931;48.832;9.072;2023-04-24T04:23:16;9.80;99.90
11748;DHT22;5931;48.832;9.072;2023-04-24T04:26:03;9.80;99.90
11748;DHT22;5931;48.832;9.072;2023-04-24T04:28:41;9.70;99.90
11748;DHT22;5931;48.832;9.072;2023-04-24T04:31:07;9.60;99.90
11748;DHT22;5931;48.832;9.072;2023-04-24T04:33:36;9.50;99.90
11748;DHT22;5931;48.832;9.072;2023-04-24T04:36:06;9.40;99.90
11748;DHT22;5931;48.832;9.072;2023-04-24T04:38:34;9.30;99.90
11748;DHT22;5931;48.832;9.072;2023-04-24T04:41:10;9.20;99.90
11748;DHT22;5931;48.832;9.072;2023-04-24T04:43:36;9.20;99.90
11748;DHT22;5931;48.832;9.072;2023-04-24T04:46:04;9.10;99.90
11748;DHT22;5931;48.832;9.072;2023-04-24T04:48:39;9.10;99.90
11748;DHT22;5931;48.832;9.072;2023-04-24T04:51:06;9.00;99.90
11748;DHT22;5931;48.832;9.072;2023-04-24T04:53:32;9.00;99.90
11748;DHT22;5931;48.832;9.072;2023-04-24T04:55:58;8.90;99.90
11748;DHT22;5931;48.832;9.072;2023-04-24T04:58:29;8.90;99.90
11748;DHT22;5931;48.832;9.072;2023-04-24T05:00:58;8.90;99.90
11748;DHT22;5931;48.832;9.072;2023-04-24T05:03:29;8.90;99.90
11748;DHT22;5931;48.832;9.072;2023-04-24T05:05:59;8.90;99.90
11748;DHT22;5931;48.832;9.072;2023-04-24T05:08:26;8.80;99.90
11748;DHT22;5931;48.832;9.072;2023-04-24T05:10:52;8.80;99.90
11748;DHT22;5931;48.832;9.072;2023-04-24T05:13:18;8.70;99.90
11748;DHT22;5931;48.832;9.072;2023-04-24T05:15:44;8.70;99.90
11748;DHT22;5931;48.832;9.072;2023-04-24T05:18:09;8.70;99.90
11748;DHT22;5931;48.832;9.072;2023-04-24T05:20:36;8.70;99.90
11748;DHT22;5931;48.832;9.072;2023-04-24T05:23:02;8.90;99.90
11748;DHT22;5931;48.832;9.072;2023-04-24T05:25:29;9.00;99.90
11748;DHT22;5931;48.832;9.072;2023-04-24T05:28:03;9.00;99.90
11748;DHT22;5931;48.832;9.072;2023-04-24T05:30:29;9.10;99.90
11748;DHT22;5931;48.832;9.072;2023-04-24T05:32:55;9.10;99.90
11748;DHT22;5931;48.832;9.072;2023-04-24T05:35:20;9.00;99.90
11748;DHT22;5931;48.832;9.072;2023-04-24T05:37:46;9.00;99.90
11748;DHT22;5931;48.832;9.072;2023-04-24T05:40:12;8.80;99.90
11748;DHT22;5931;48.832;9.072;2023-04-24T05:42:38;8.80;99.90
11748;DHT22;5931;48.832;9.072;2023-04-24T05:45:04;8.60;99.90
11748;DHT22;5931;48.832;9.072;2023-04-24T05:47:30;8.60;99.90
11748;DHT22;5931;48.832;9.072;2023-04-24T05:49:56;8.70;99.90
11748;DHT22;5931;48.832;9.072;2023-04-24T05:52:22;8.80;99.90
11748;DHT22;5931;48.832;9.072;2023-04-24T05:54:49;8.90;99.90
11748;DHT22;5931;48.832;9.072;2023-04-24T05:57:19;9.00;99.90
11748;DHT22;5931;48.832;9.072;2023-04-24T05:59:54;9.00;99.90
11748;DHT22;5931;48.832;9.072;2023-04-24T06:02:21;8.90;99.90
11748;DHT22;5931;48.832;9.072;2023-04-24T06:04:47;8.90;99.90
11748;DHT22;5931;48.832;9.072;2023-04-24T06:07:13;8.90;99.90
11748;DHT22;5931;48.832;9.072;2023-04-24T06:09:41;9.00;99.90
11748;DHT22;5931;48.832;9.072;2023-04-24T06:12:07;9.10;99.90
11748;DHT22;5931;48.832;9.072;2023-04-24T06:14:46;9.20;99.90
11748;DHT22;5931;48.832;9.072;2023-04-24T06:17:22;9.40;99.90
11748;DHT22;5931;48.832;9.072;2023-04-24T06:19:49;9.60;99.90
11748;DHT22;5931;48.832;9.072;2023-04-24T06:22:15;9.90;99.90
11748;DHT22;5931;48.832;9.072;2023-04-24T06:24:41;10.30;99.90
11748;DHT22;5931;48.832;9.072;2023-04-24T06:27:06;10.80;99.90
11748;DHT22;5931;48.832;9.072;2023-04-24T06:29:33;11.10;99.90
11748;DHT22;5931;48.832;9.072;2023-04-24T06:31:59;11.30;99.90
11748;DHT22;5931;48.832;9.072;2023-04-24T06:34:25;11.50;99.90
11748;DHT22;5931;48.832;9.072;2023-04-24T06:36:51;11.60;99.90
11748;DHT22;5931;48.832;9.072;2023-04-24T06:39:16;12.00;99.90
11748;DHT22;5931;48.832;9.072;2023-04-24T06:41:42;12.30;99.90
11748;DHT22;5931;48.832;9.072;2023-04-24T06:44:16;12.10;99.90
11748;DHT22;5931;48.832;9.072;2023-04-24T06:46:42;12.00;99.90
11748;DHT22;5931;48.832;9.072;2023-04-24T06:49:07;12.00;99.90
11748;DHT22;5931;48.832;9.072;2023-04-24T06:51:33;12.20;99.90
11748;DHT22;5931;48.832;9.072;2023-04-24T06:53:59;12.20;99.90
11748;DHT22;5931;48.832;9.072;2023-04-24T06:56:25;12.30;99.90
11748;DHT22;5931;48.832;9.072;2023-04-24T06:58:51;12.50;99.90
11748;DHT22;5931;48.832;9.072;2023-04-24T07:01:17;12.60;99.90
11748;DHT22;5931;48.832;9.072;2023-04-24T07:03:43;12.60;99.90
11748;DHT22;5931;48.832;9.072;2023-04-24T07:06:09;12.70;99.90
11748;DHT22;5931;48.832;9.072;2023-04-24T07:08:38;12.50;99.90
11748;DHT22;5931;48.832;9.072;2023-04-24T07:11:04;12.70;99.90
11748;DHT22;5931;48.832;9.072;2023-04-24T07:13:29;12.80;99.90
11748;DHT22;5931;48.832;9.072;2023-04-24T07:15:55;12.80;99.90
11748;DHT22;5931;48.832;9.072;2023-04-24T07:18:22;12.50;99.90
11748;DHT22;5931;48.832;9.072;2023-04-24T07:20:48;12.60;99.90
11748;DHT22;5931;48.832;9.072;2023-04-24T07:23:16;12.50;99.90
11748;DHT22;5931;48.832;9.072;2023-04-24T07:25:41;12.40;99.90
11748;DHT22;5931;48.832;9.072;2023-04-24T07:28:07;12.50;99.90
11748;DHT22;5931;48.832;9.072;2023-04-24T07:30:33;12.40;99.90
11748;DHT22;5931;48.832;9.072;2023-04-24T07:32:59;12.60;99.90
11748;DHT22;5931;48.832;9.072;2023-04-24T07:35:26;12.70;99.90
11748;DHT22;5931;48.832;9.072;2023-04-24T07:37:55;13.00;99.90
11748;DHT22;5931;48.832;9.072;2023-04-24T07:40:21;13.00;99.90
11748;DHT22;5931;48.832;9.072;2023-04-24T07:42:47;12.90;99.90
11748;DHT22;5931;48.832;9.072;2023-04-24T07:45:16;13.00;99.90
11748;DHT22;5931;48.832;9.072;2023-04-24T07:47:42;13.20;99.90
11748;DHT22;5931;48.832;9.072;2023-04-24T07:50:09;13.10;99.90
11748;DHT22;5931;48.832;9.072;2023-04-24T07:52:35;13.00;99.90
11748;DHT22;5931;48.832;9.072;2023-04-24T07:55:01;12.70;99.90
11748;DHT22;5931;48.832;9.072;2023-04-24T07:57:28;12.50;99.90
11748;DHT22;5931;48.832;9.072;2023-04-24T07:59:54;12.50;99.90
11748;DHT22;5931;48.832;9.072;2023-04-24T08:02:20;12.50;99.90
11748;DHT22;5931;48.832;9.072;2023-04-24T08:04:54;12.70;99.90
11748;DHT22;5931;48.832;9.072;2023-04-24T08:07:20;12.80;99.90
11748;DHT22;5931;48.832;9.072;2023-04-24T08:09:46;12.90;99.90
11748;DHT22;5931;48.832;9.072;2023-04-24T08:12:12;13.00;99.90
11748;DHT22;5931;48.832;9.072;2023-04-24T08:14:37;12.70;99.90
11748;DHT22;5931;48.832;9.072;2023-04-24T08:17:03;12.60;99.90
11748;DHT22;5931;48.832;9.072;2023-04-24T08:19:29;12.50;99.90
11748;DHT22;5931;48.832;9.072;2023-04-24T08:21:55;12.20;99.90
11748;DHT22;5931;48.832;9.072;2023-04-24T08:24:22;11.90;99.90
11748;DHT22;5931;48.832;9.072;2023-04-24T08:26:48;11.60;99.90
11748;DHT22;5931;48.832;9.072;2023-04-24T08:29:19;11.80;99.90
11748;DHT22;5931;48.832;9.072;2023-04-24T08:31:45;11.90;99.90
11748;DHT22;5931;48.832;9.072;2023-04-24T08:34:10;12.00;99.90
11748;DHT22;5931;48.832;9.072;2023-04-24T08:36:37;11.90;99.90
11748;DHT22;5931;48.832;9.072;2023-04-24T08:39:02;12.00;99.90
11748;DHT22;5931;48.832;9.072;2023-04-24T08:41:28;12.00;99.90
11748;DHT22;5931;48.832;9.072;2023-04-24T08:43:56;12.00;99.90
11748;DHT22;5931;48.832;9.072;2023-04-24T08:46:24;11.90;99.90
11748;DHT22;5931;48.832;9.072;2023-04-24T08:48:51;11.90;99.90
11748;DHT22;5931;48.832;9.072;2023-04-24T08:51:18;11.70;99.90
11748;DHT22;5931;48.832;9.072;2023-04-24T08:53:44;11.80;99.90
11748;DHT22;5931;48.832;9.072;2023-04-24T08:56:11;11.80;99.90
11748;DHT22;5931;48.832;9.072;2023-04-24T08:58:37;11.90;99.90
11748;DHT22;5931;48.832;9.072;2023-04-24T09:01:04;12.30;99.90
11748;DHT22;5931;48.832;9.072;2023-04-24T09:03:31;12.80;99.90
11748;DHT22;5931;48.832;9.072;2023-04-24T09:05:57;13.00;99.90
11748;DHT22;5931;48.832;9.072;2023-04-24T09:08:25;13.10;99.90
11748;DHT22;5931;48.832;9.072;2023-04-24T09:10:51;13.00;99.90
11748;DHT22;5931;48.832;9.072;2023-04-24T09:13:19;12.60;99.90
11748;DHT22;5931;48.832;9.072;2023-04-24T09:15:45;12.40;99.90
11748;DHT22;5931;48.832;9.072;2023-04-24T09:18:11;12.00;99.90
11748;DHT22;5931;48.832;9.072;2023-04-24T09:23:31;11.70;99.90
11748;DHT22;5931;48.832;9.072;2023-04-24T09:25:59;12.00;99.90
11748;DHT22;5931;48.832;9.072;2023-04-24T09:28:35;12.40;99.90
11748;DHT22;5931;48.832;9.072;2023-04-24T09:31:11;12.40;99.90
11748;DHT22;5931;48.832;9.072;2023-04-24T09:33:37;12.60;99.90
11748;DHT22;5931;48.832;9.072;2023-04-24T09:36:03;12.80;99.90
11748;DHT22;5931;48.832;9.072;2023-04-24T09:38:36;12.90;99.90
11748;DHT22;5931;48.832;9.072;2023-04-24T09:41:05;12.90;99.90
11748;DHT22;5931;48.832;9.072;2023-04-24T09:43:31;12.90;99.90
11748;DHT22;5931;48.832;9.072;2023-04-24T09:45:58;13.00;99.90
11748;DHT22;5931;48.832;9.072;2023-04-24T09:48:34;13.10;99.90
11748;DHT22;5931;48.832;9.072;2023-04-24T09:51:04;13.00;99.90
11748;DHT22;5931;48.832;9.072;2023-04-24T09:53:32;12.70;99.90
11748;DHT22;5931;48.832;9.072;2023-04-24T09:56:08;12.50;99.90
11748;DHT22;5931;48.832;9.072;2023-04-24T09:58:36;12.40;99.90
11748;DHT22;5931;48.832;9.072;2023-04-24T10:01:02;12.40;99.90
11748;DHT22;5931;48.832;9.072;2023-04-24T10:03:34;12.30;99.90
11748;DHT22;5931;48.832;9.072;2023-04-24T10:06:04;12.20;99.90
11748;DHT22;5931;48.832;9.072;2023-04-24T10:08:35;12.60;99.90
11748;DHT22;5931;48.832;9.072;2023-04-24T10:11:01;13.20;99.90
11748;DHT22;5931;48.832;9.072;2023-04-24T10:13:28;13.90;99.90
11748;DHT22;5931;48.832;9.072;2023-04-24T10:15:54;14.30;99.90
11748;DHT22;5931;48.832;9.072;2023-04-24T10:18:21;14.90;99.90
11748;DHT22;5931;48.832;9.072;2023-04-24T10:20:47;15.20;99.90
11748;DHT22;5931;48.832;9.072;2023-04-24T10:23:13;15.00;99.90
11748;DHT22;5931;48.832;9.072;2023-04-24T10:25:39;14.80;99.90
11748;DHT22;5931;48.832;9.072;2023-04-24T10:28:05;14.50;99.90
11748;DHT22;5931;48.832;9.072;2023-04-24T10:30:33;14.10;99.90
11748;DHT22;5931;48.832;9.072;2023-04-24T10:33:03;13.40;99.90
11748;DHT22;5931;48.832;9.072;2023-04-24T10:35:37;13.20;99.90
11748;DHT22;5931;48.832;9.072;2023-04-24T10:38:08;13.00;99.90
11748;DHT22;5931;48.832;9.072;2023-04-24T10:40:35;12.90;99.90
11748;DHT22;5931;48.832;9.072;2023-04-24T10:43:08;13.00;99.90
11748;DHT22;5931;48.832;9.072;2023-04-24T10:45:37;13.10;99.90
11748;DHT22;5931;48.832;9.072;2023-04-24T10:48:07;13.40;99.90
11748;DHT22;5931;48.832;9.072;2023-04-24T10:50:45;13.40;99.90
11748;DHT22;5931;48.832;9.072;2023-04-24T10:53:19;13.40;99.90
11748;DHT22;5931;48.832;9.072;2023-04-24T10:56:03;13.50;99.90
11748;DHT22;5931;48.832;9.072;2023-04-24T10:58:45;13.50;99.90
11748;DHT22;5931;48.832;9.072;2023-04-24T11:01:24;13.40;99.90
11748;DHT22;5931;48.832;9.072;2023-04-24T11:03:54;13.30;99.90
11748;DHT22;5931;48.832;9.072;2023-04-24T11:06:29;13.00;99.90
11748;DHT22;5931;48.832;9.072;2023-04-24T11:09:05;12.60;99.90
11748;DHT22;5931;48.832;9.072;2023-04-24T11:11:32;12.60;99.90
11748;DHT22;5931;48.832;9.072;2023-04-24T11:18:56;12.60;99.90
11748;DHT22;5931;48.832;9.072;2023-04-24T11:21:25;12.80;99.90
11748;DHT22;5931;48.832;9.072;2023-04-24T11:23:51;13.30;99.90
11748;DHT22;5931;48.832;9.072;2023-04-24T11:26:26;13.50;99.90
11748;DHT22;5931;48.832;9.072;2023-04-24T11:29:07;14.00;99.90
11748;DHT22;5931;48.832;9.072;2023-04-24T11:31:40;14.20;99.90
11748;DHT22;5931;48.832;9.072;2023-04-24T11:34:14;14.30;99.90
11748;DHT22;5931;48.832;9.072;2023-04-24T11:36:43;14.00;99.90
11748;DHT22;5931;48.832;9.072;2023-04-24T11:39:09;13.80;99.90
11748;DHT22;5931;48.832;9.072;2023-04-24T11:41:36;13.80;99.90
11748;DHT22;5931;48.832;9.072;2023-04-24T11:44:03;13.70;99.90
11748;DHT22;5931;48.832;9.072;2023-04-24T11:46:31;13.70;99.90
11748;DHT22;5931;48.832;9.072;2023-04-24T11:48:57;13.90;99.90
11748;DHT22;5931;48.832;9.072;2023-04-24T11:51:24;14.20;99.90
11748;DHT22;5931;48.832;9.072;2023-04-24T11:53:54;14.80;99.90
11748;DHT22;5931;48.832;9.072;2023-04-24T11:56:24;15.20;99.90
11748;DHT22;5931;48.832;9.072;2023-04-24T11:58:52;15.20;99.90
11748;DHT22;5931;48.832;9.072;2023-04-24T12:01:19;15.00;99.90
11748;DHT22;5931;48.832;9.072;2023-04-24T12:03:59;14.80;99.90
11748;DHT22;5931;48.832;9.072;2023-04-24T12:06:25;14.30;99.90
11748;DHT22;5931;48.832;9.072;2023-04-24T12:08:52;13.90;99.90
11748;DHT22;5931;48.832;9.072;2023-04-24T12:11:20;13.30;99.90
11748;DHT22;5931;48.832;9.072;2023-04-24T12:13:46;13.20;99.90
11748;DHT22;5931;48.832;9.072;2023-04-24T12:16:12;13.20;99.90
11748;DHT22;5931;48.832;9.072;2023-04-24T12:18:45;13.40;99.90
11748;DHT22;5931;48.832;9.072;2023-04-24T12:21:22;13.40;99.90
11748;DHT22;5931;48.832;9.072;2023-04-24T12:23:48;13.60;99.90
11748;DHT22;5931;48.832;9.072;2023-04-24T12:26:20;13.60;99.90
11748;DHT22;5931;48.832;9.072;2023-04-24T12:28:49;13.20;99.90
11748;DHT22;5931;48.832;9.072;2023-04-24T12:31:20;13.00;99.90
11748;DHT22;5931;48.832;9.072;2023-04-24T12:33:46;13.00;99.90
11748;DHT22;5931;48.832;9.072;2023-04-24T12:36:12;13.10;99.90
11748;DHT22;5931;48.832;9.072;2023-04-24T12:38:38;13.50;99.90
11748;DHT22;5931;48.832;9.072;2023-04-24T12:41:11;13.70;99.90
11748;DHT22;5931;48.832;9.072;2023-04-24T12:43:37;13.50;99.90
11748;DHT22;5931;48.832;9.072;2023-04-24T12:46:03;13.20;99.90
11748;DHT22;5931;48.832;9.072;2023-04-24T12:48:29;13.00;99.90
11748;DHT22;5931;48.832;9.072;2023-04-24T12:50:59;12.70;99.90
11748;DHT22;5931;48.832;9.072;2023-04-24T12:53:28;12.00;99.90
11748;DHT22;5931;48.832;9.072;2023-04-24T12:55:55;11.70;99.90
11748;DHT22;5931;48.832;9.072;2023-04-24T12:58:22;11.60;99.90
11748;DHT22;5931;48.832;9.072;2023-04-24T13:00:48;11.70;99.90
11748;DHT22;5931;48.832;9.072;2023-04-24T13:03:14;12.20;99.90
11748;DHT22;5931;48.832;9.072;2023-04-24T13:05:40;12.60;99.90
11748;DHT22;5931;48.832;9.072;2023-04-24T13:08:06;13.00;99.90
11748;DHT22;5931;48.832;9.072;2023-04-24T13:10:31;13.40;99.90
11748;DHT22;5931;48.832;9.072;2023-04-24T13:12:57;13.50;99.90
11748;DHT22;5931;48.832;9.072;2023-04-24T13:15:23;13.50;99.90
11748;DHT22;5931;48.832;9.072;2023-04-24T13:17:49;13.30;99.90
11748;DHT22;5931;48.832;9.072;2023-04-24T13:20:15;13.50;99.90
11748;DHT22;5931;48.832;9.072;2023-04-24T13:22:40;13.90;99.90
11748;DHT22;5931;48.832;9.072;2023-04-24T13:25:06;13.90;99.90
11748;DHT22;5931;48.832;9.072;2023-04-24T13:27:33;13.60;99.90
11748;DHT22;5931;48.832;9.072;2023-04-24T13:29:58;13.40;99.90
11748;DHT22;5931;48.832;9.072;2023-04-24T13:32:24;13.00;99.90
11748;DHT22;5931;48.832;9.072;2023-04-24T13:34:50;12.70;99.90
11748;DHT22;5931;48.832;9.072;2023-04-24T13:37:16;12.70;99.90
11748;DHT22;5931;48.832;9.072;2023-04-24T13:39:42;12.90;99.90
11748;DHT22;5931;48.832;9.072;2023-04-24T13:42:08;13.00;99.90
11748;DHT22;5931;48.832;9.072;2023-04-24T13:44:33;13.40;99.90
11748;DHT22;5931;48.832;9.072;2023-04-24T13:46:59;13.90;99.90
11748;DHT22;5931;48.832;9.072;2023-04-24T13:49:25;14.30;99.90
11748;DHT22;5931;48.832;9.072;2023-04-24T13:51:52;14.50;99.90
11748;DHT22;5931;48.832;9.072;2023-04-24T13:54:18;14.80;99.90
11748;DHT22;5931;48.832;9.072;2023-04-24T13:56:44;15.00;99.90
11748;DHT22;5931;48.832;9.072;2023-04-24T13:59:11;14.80;99.90
11748;DHT22;5931;48.832;9.072;2023-04-24T14:01:37;14.80;99.90
11748;DHT22;5931;48.832;9.072;2023-04-24T14:04:03;14.90;99.90
11748;DHT22;5931;48.832;9.072;2023-04-24T14:06:28;15.00;99.90
11748;DHT22;5931;48.832;9.072;2023-04-24T14:08:54;15.50;99.90
11748;DHT22;5931;48.832;9.072;2023-04-24T14:11:20;15.50;99.90
11748;DHT22;5931;48.832;9.072;2023-04-24T14:13:46;16.10;99.90
11748;DHT22;5931;48.832;9.072;2023-04-24T14:16:12;16.40;99.90
11748;DHT22;5931;48.832;9.072;2023-04-24T14:18:38;16.40;99.90
11748;DHT22;5931;48.832;9.072;2023-04-24T14:21:04;16.80;99.90
11748;DHT22;5931;48.832;9.072;2023-04-24T14:23:30;17.80;99.90
11748;DHT22;5931;48.832;9.072;2023-04-24T14:25:56;17.20;99.90
11748;DHT22;5931;48.832;9.072;2023-04-24T14:28:22;16.40;99.90
11748;DHT22;5931;48.832;9.072;2023-04-24T14:30:48;15.60;99.90
11748;DHT22;5931;48.832;9.072;2023-04-24T14:33:14;15.20;99.90
11748;DHT22;5931;48.832;9.072;2023-04-24T14:35:41;14.90;99.90
11748;DHT22;5931;48.832;9.072;2023-04-24T14:38:07;14.70;99.90
11748;DHT22;5931;48.832;9.072;2023-04-24T14:40:34;14.60;99.90
11748;DHT22;5931;48.832;9.072;2023-04-24T14:43:00;14.30;99.90
11748;DHT22;5931;48.832;9.072;2023-04-24T14:45:26;14.00;99.90
11748;DHT22;5931;48.832;9.072;2023-04-24T14:47:52;14.00;99.90
11748;DHT22;5931;48.832;9.072;2023-04-24T14:50:18;13.80;99.90
11748;DHT22;5931;48.832;9.072;2023-04-24T14:52:44;14.00;99.90
11748;DHT22;5931;48.832;9.072;2023-04-24T14:55:10;14.60;99.90
11748;DHT22;5931;48.832;9.072;2023-04-24T14:57:36;15.00;99.90
11748;DHT22;5931;48.832;9.072;2023-04-24T15:00:05;16.60;99.90
11748;DHT22;5931;48.832;9.072;2023-04-24T15:02:34;17.20;99.90
11748;DHT22;5931;48.832;9.072;2023-04-24T15:04:59;16.50;99.90
11748;DHT22;5931;48.832;9.072;2023-04-24T15:07:25;15.70;99.90
11748;DHT22;5931;48.832;9.072;2023-04-24T15:09:51;15.00;99.90
11748;DHT22;5931;48.832;9.072;2023-04-24T15:12:16;14.60;99.90
11748;DHT22;5931;48.832;9.072;2023-04-24T15:14:42;14.20;99.90
11748;DHT22;5931;48.832;9.072;2023-04-24T15:17:08;14.00;99.90
11748;DHT22;5931;48.832;9.072;2023-04-24T15:19:33;13.80;99.90
11748;DHT22;5931;48.832;9.072;2023-04-24T15:21:59;13.20;99.90
11748;DHT22;5931;48.832;9.072;2023-04-24T15:24:25;12.90;99.90
11748;DHT22;5931;48.832;9.072;2023-04-24T15:26:50;12.70;99.90
11748;DHT22;5931;48.832;9.072;2023-04-24T15:29:16;12.60;99.90
11748;DHT22;5931;48.832;9.072;2023-04-24T15:31:41;13.00;99.90
11748;DHT22;5931;48.832;9.072;2023-04-24T15:34:07;13.40;99.90
11748;DHT22;5931;48.832;9.072;2023-04-24T15:36:34;13.70;99.90
11748;DHT22;5931;48.832;9.072;2023-04-24T15:39:01;14.00;99.90
11748;DHT22;5931;48.832;9.072;2023-04-24T15:41:27;14.10;99.90
11748;DHT22;5931;48.832;9.072;2023-04-24T15:43:52;14.10;99.90
11748;DHT22;5931;48.832;9.072;2023-04-24T15:46:18;13.80;99.90
11748;DHT22;5931;48.832;9.072;2023-04-24T15:48:44;13.90;99.90
11748;DHT22;5931;48.832;9.072;2023-04-24T15:51:10;14.40;99.90
11748;DHT22;5931;48.832;9.072;2023-04-24T15:53:36;14.80;99.90
11748;DHT22;5931;48.832;9.072;2023-04-24T15:56:01;15.20;99.90
11748;DHT22;5931;48.832;9.072;2023-04-24T15:58:27;15.60;99.90
11748;DHT22;5931;48.832;9.072;2023-04-24T16:00:53;15.90;99.90